Terminal Aerodrome Forecast
Issued by NWS Wilmington, OH

Current Version | Previous Version | Graphics & Text | Print | Product List | Glossary On
Versions: 1 2 3 4 5 6 7 8 9 10 11 12 13 14 15 16 17
205
FTUS41 KILN 202248 AAE
TAFDAY
TAF AMD
KDAY 202248Z 2023/2118 23010G20KT P6SM -SHRA BKN050
      TEMPO 2023/2102 2SM TSRA OVC025CB
     FM210200 24013G18KT 5SM -SHRA VCTS OVC025CB
     FM210400 28011KT P6SM VCSH BKN025
     FM210600 30010KT P6SM BKN025
     FM211500 31009KT P6SM BKN040=

USA.gov is the U.S. government's official web portal to all federal, state and local government web resources and services.